Date,TemperatureHighF,TemperatureAvgF,TemperatureLowF,DewpointHighF,DewpointAvgF,DewpointLowF,HumidityHigh,HumidityAvg,HumidityLow,PressureMaxIn,PressureMinIn,WindSpeedMaxMPH,WindSpeedAvgMPH,GustSpeedMaxMPH,PrecipitationSumIn
2013-8-1,85.2,73.5,66.5,68.2,66.2,62.6,97,80,52,30.00,29.93,0,0,0,0.04
2013-8-2,84.2,70.8,57.9,70.2,64.4,56.8,97,82,60,30.00,29.94,0,0,0,0.00
2013-8-3,87.2,76.0,68.6,74.5,69.0,65.7,94,80,64,30.02,29.93,0,0,0,0.00
2013-8-4,80.1,69.1,58.6,64.4,59.7,55.4,90,74,49,30.13,30.03,0,0,0,0.00
2013-8-5,85.0,69.1,54.3,66.4,59.9,52.9,97,76,48,30.10,29.91,0,0,0,0.00
2013-8-6,83.6,75.7,69.0,75.7,70.0,65.1,91,83,74,29.93,29.87,0,0,0,0.00
2013-8-7,87.2,78.3,69.2,77.3,73.4,67.7,98,85,70,29.90,29.84,0,0,0,0.00
2013-8-8,90.7,79.1,69.9,78.1,73.6,68.7,98,85,63,29.92,29.83,0,0,0,0.12
2013-8-9,86.2,76.6,71.2,75.2,72.1,70.3,98,87,66,29.99,29.88,0,0,0,0.01
2013-8-10,88.6,77.0,70.1,72.9,69.6,67.0,91,79,59,30.08,30.00,0,0,0,0.00
2013-8-11,87.6,74.3,64.4,69.9,66.3,63.2,97,78,50,30.08,30.02,0,0,0,0.00
2013-8-12,85.7,72.9,60.7,74.4,68.1,59.2,98,86,67,30.07,29.86,0,0,0,0.01
2013-8-13,79.2,71.9,61.5,72.9,65.3,52.0,97,81,65,30.06,29.85,0,0,0,0.01
2013-8-14,72.4,60.9,50.8,54.4,51.8,48.6,92,74,48,30.17,30.07,0,0,0,0.00
2013-8-15,72.0,59.3,47.5,57.4,52.9,45.6,95,81,60,30.16,30.08,0,0,0,0.00
2013-8-16,78.4,65.9,53.1,61.3,57.4,51.1,95,76,52,30.13,30.09,0,0,0,0.00
2013-8-17,80.7,69.1,59.3,64.2,60.2,55.4,89,74,55,30.17,30.08,0,0,0,0.00
2013-8-18,85.6,70.8,58.9,65.3,61.7,57.2,96,76,47,30.16,30.06,0,0,0,0.00
2013-8-19,88.6,70.8,58.0,67.5,62.6,56.5,98,78,47,30.12,30.03,0,0,0,0.00
2013-8-20,90.4,73.1,61.1,72.2,65.9,59.4,97,80,50,30.12,30.03,0,0,0,0.01
2013-8-21,92.3,75.8,63.2,73.6,68.6,61.8,97,81,52,30.13,30.02,0,0,0,0.00
2013-8-22,91.9,76.9,65.5,75.1,69.6,64.0,97,80,53,30.08,29.99,0,0,0,0.08
2013-8-23,86.7,76.0,68.8,70.5,68.6,65.6,96,79,56,30.08,30.01,0,0,0,0.00
2013-8-24,89.3,74.2,61.9,69.2,63.7,60.2,96,74,41,30.22,30.09,0,0,0,0.00
2013-8-25,92.9,73.3,56.9,66.7,61.8,55.4,97,72,36,30.29,30.18,0,0,0,0.00
2013-8-26,91.6,76.7,63.6,75.8,69.2,61.2,98,79,58,30.22,30.05,0,0,0,0.00
2013-8-27,93.2,80.9,72.2,77.6,73.9,70.7,95,81,60,30.08,29.95,0,0,0,0.00
2013-8-28,96.2,83.0,72.6,74.2,72.8,70.8,95,74,49,29.97,29.90,0,0,0,0.00
2013-8-29,92.5,81.6,73.9,74.9,71.9,69.1,95,74,47,29.99,29.93,0,0,0,0.00
2013-8-30,96.3,80.0,65.4,76.3,70.7,63.9,97,76,48,29.95,29.81,0,0,0,0.00
2013-8-31,99.2,83.0,69.8,79.6,73.7,68.0,94,75,53,29.86,29.70,0,0,0,0.63